ADDS METAR Data INFO
IDs: Format: Raw Decoded Include TAF

Data at: 2039 UTC 19 Jul 2018

KDRO 191953Z AUTO 22009KT 10SM CLR 32/06 A3025 RMK AO2 SLP136 T03220061
KDRO 191853Z AUTO 26006KT 10SM CLR 31/08 A3027 RMK AO2 SLP146 T03110078
KDRO 191753Z AUTO VRB04KT 10SM CLR 29/11 A3030 RMK AO2 SLP158 T02890111 10289 20122 58004
KDRO 191653Z AUTO VRB05KT 10SM CLR 25/11 A3031 RMK AO2 SLP165 T02500106
KDRO 191553Z AUTO 00000KT 10SM CLR 23/10 A3032 RMK AO2 SLP168 T02280100
KDRO 191453Z AUTO 08007KT 10SM CLR 20/10 A3031 RMK AO2 SLP170 T02000100 51012
KDRO 191353Z AUTO 05005KT 10SM CLR 17/11 A3031 RMK AO2 SLP170 T01670106
KDRO 191253Z AUTO 09004KT 10SM CLR 14/10 A3029 RMK AO2 SLP172 T01390100
KDRO 191153Z AUTO 07004KT 10SM CLR 13/09 A3027 RMK AO2 SLP173 T01280094 10194 20128 53003
KDRO 191053Z AUTO 00000KT 10SM CLR 14/09 A3026 RMK AO2 SLP149 T01440094
KDRO 190953Z AUTO 00000KT 10SM CLR 14/09 A3026 RMK AO2 SLP146 T01440094
KDRO 190853Z AUTO 35003KT 10SM CLR 16/09 A3026 RMK AO2 SLP143 T01610089 57004
KDRO 190753Z AUTO 25003KT 10SM CLR 17/11 A3026 RMK AO2 SLP147 T01670106
KDRO 190653Z AUTO 32003KT 10SM CLR 17/10 A3027 RMK AO2 SLP152 T01720100 403220117
KDRO 190553Z AUTO 34004KT 10SM CLR 18/10 A3028 RMK AO2 SLP156 T01830100 10272 20183 50006
KDRO 190453Z AUTO 06004KT 10SM CLR 21/11 A3028 RMK AO2 SLP156 T02060106
KDRO 190353Z AUTO 04003KT 10SM CLR 22/10 A3027 RMK AO2 SLP156 T02220100
KDRO 190253Z AUTO 00000KT 10SM CLR 24/11 A3025 RMK AO2 SLP153 T02390106 53005
KDRO 190153Z AUTO 32006KT 10SM CLR 26/09 A3024 RMK AO2 SLP152 T02610094
KDRO 190053Z AUTO 31007KT 10SM CLR 26/12 A3022 RMK AO2 SLP148 T02560122
KDRO 190002Z AUTO 26008KT 10SM FEW080 FEW100 24/11 A3023 RMK AO2 LTG DSNT SW AND W T02390106
KDRO 182353Z AUTO 25009KT 10SM VCTS FEW047 SCT100 SCT120 24/10 A3023 RMK AO2 LTG DSNT SW AND W RAB07E47 TSB05E20 SLP159 P0000 60000 T02390100 10322 20228 55009
KDRO 182339Z AUTO 24011G21KT 10SM -RA FEW080 SCT100 BKN120 24/10 A3024 RMK AO2 RAB07 TSB05E20 P0000 T02390100
KDRO 182326Z AUTO 27013G23KT 10SM VCTS -RA FEW065 SCT110 24/11 A3024 RMK AO2 RAB07 TSB05E20 P0000 T02440111
KDRO 182311Z AUTO 25016G25KT 10SM -TSRA FEW060 26/12 A3024 RMK AO2 LTG DSNT W RAB07 TSB05 P0000 T02560117
KDRO 182253Z AUTO 23009KT 10SM VCTS CLR 29/10 A3023 RMK AO2 LTG DSNT W SLP143 T02940100
KDRO 182243Z AUTO 24008KT 10SM VCTS CLR 30/10 A3023 RMK AO2 LTG DSNT NE T03000100
KDRO 182153Z AUTO 24010G16KT 10SM CLR 32/09 A3024 RMK AO2 SLP141 T03220094
KDRO 182053Z AUTO 25008KT 10SM CLR 31/09 A3027 RMK AO2 SLP150 T03110094 58023
KDRO 181953Z AUTO 21013KT 10SM CLR 30/11 A3030 RMK AO2 SLP160 T03000111
KDRO 181853Z AUTO 23007KT 10SM CLR 28/12 A3032 RMK AO2 SLP175 T02780117
KDRO 181753Z AUTO 24005KT 10SM CLR 26/13 A3035 RMK AO2 SLP186 T02560133 10256 20117 58010
KDRO 181653Z AUTO 24003KT 10SM CLR 23/13 A3036 RMK AO2 SLP197 T02330128
KDRO 181553Z AUTO 07004KT 10SM CLR 21/13 A3037 RMK AO2 SLP202 T02060133
KDRO 181453Z AUTO 00000KT 10SM CLR 18/13 A3038 RMK AO2 SLP214 T01780133 51006
KDRO 181353Z AUTO 00000KT 10SM CLR 15/12 A3038 RMK AO2 SLP220 T01500122
KDRO 181253Z AUTO 00000KT 10SM CLR 13/11 A3037 RMK AO2 SLP221 T01280106
KDRO 181153Z AUTO 02004KT 10SM CLR 12/11 A3036 RMK AO2 SLP210 70039 T01220106 10167 20122 53005 $
KDRO 181053Z AUTO 03004KT 10SM CLR 13/11 A3035 RMK AO2 SLP190 T01280106 $
KDRO 180953Z AUTO 01007KT 10SM CLR 13/12 A3035 RMK AO2 SLP187 T01330117 $
KDRO 180853Z AUTO 06003KT 10SM CLR 14/13 A3034 RMK AO2 SLP182 T01440128 55001 $